Wilmington, Delaware
Current Conditions -  °F | °C
As of 3:51 AM on Friday 28 Nov 2014 (Local Time) from KILG Reporting Station
Clear Clear  
Wind Chill: 23°   Ceiling: Unl
Heat Index: 33°   Visibility: 10mi
Dew Point: 23°   Wind: 14mph
Humidity: 66%   Direction: 300°WNW
Pressure: 30.16"   Gusts: NA
Location:  39.74°N, 75.55°W
Report Text: KILG 280851Z AUTO 30012KT 10SM CLR 01/M05 A3016 RMK AO2 SLP212 T00061050 51011
Loading
Personal Weather Stations






























Interactive Weather Map New forecast layout! Learn more

10-Day Weather Forecast

Advertisements
Track Severe Weather on mobile